Terminal Aerodrome Forecast
Issued by NWS

Home | Current Version | Previous Version | Text Only | Print | Product List | Glossary On
Versions: 1 2 3 4 5 6 7 8 9 10 11 12 13 14 15 16 17
000
FTUS45 KRIW 272300
TAFCOD
TAF
KCOD 272331Z 2800/2824 24014G24KT P6SM SCT140 BKN200 WS020/26050KT
     FM281700 24022G34KT P6SM SKC WS018/26055KT
      AMD LTD TO CLD VIS AND WIND=

USA.gov is the U.S. government's official web portal to all federal, state and local government web resources and services.